Time;durP1;ratioP1;P1;durP2;ratioP2;P2;SDS_P1;SDS_P2;PMS_P1;PMS_P2;Temp;Humidity;BMP_temperature;BMP_pressure;BME280_temperature;BME280_humidity;BME280_pressure;Samples;Min_cycle;Max_cycle;Signal;HPM_P1;HPM_P2
2022/04/27 00:02:02;;;;;;;4.83;3.33;;;7.60;99.90;;;;;;5095375;27;20197;-39
2022/04/27 00:04:29;;;;;;;6.20;3.77;;;7.50;99.90;;;;;;5085055;27;20206;-40
2022/04/27 00:06:56;;;;;;;5.83;3.40;;;7.50;99.90;;;;;;5096969;27;20224;-40
2022/04/27 00:09:22;;;;;;;7.67;3.70;;;7.50;99.90;;;;;;5099162;27;20189;-42
2022/04/27 00:11:50;;;;;;;8.37;3.80;;;7.50;99.90;;;;;;5102651;27;20195;-41
2022/04/27 00:14:18;;;;;;;7.83;3.60;;;7.40;99.90;;;;;;5081609;27;20225;-40
2022/04/27 00:16:44;;;;;;;7.37;3.70;;;7.40;99.90;;;;;;5090748;28;20198;-40
2022/04/27 00:19:11;;;;;;;5.33;3.50;;;7.40;99.90;;;;;;5098516;28;20228;-39
2022/04/27 00:21:38;;;;;;;7.67;3.70;;;7.40;99.90;;;;;;5091385;28;20200;-39
2022/04/27 00:24:06;;;;;;;5.13;3.67;;;7.30;99.90;;;;;;5099692;27;20220;-39
2022/04/27 00:26:33;;;;;;;7.57;4.03;;;7.30;99.90;;;;;;5087614;27;20198;-40
2022/04/27 00:29:01;;;;;;;6.40;4.40;;;7.30;99.90;;;;;;5088030;28;20187;-39
2022/04/27 00:31:28;;;;;;;4.07;3.73;;;7.20;99.90;;;;;;5081773;27;20213;-40
2022/04/27 00:33:56;;;;;;;4.50;3.53;;;7.20;99.90;;;;;;5087972;27;20700;-40
2022/04/27 00:36:22;;;;;;;6.03;3.87;;;7.20;99.90;;;;;;5087281;27;20194;-40
2022/04/27 00:38:49;;;;;;;8.30;3.50;;;7.10;99.90;;;;;;5090311;27;20479;-39
2022/04/27 00:41:16;;;;;;;7.60;4.17;;;7.10;99.90;;;;;;5101352;27;20215;-40
2022/04/27 00:43:45;;;;;;;5.70;3.53;;;7.10;99.90;;;;;;5090114;28;20260;-40
2022/04/27 00:46:13;;;;;;;5.50;4.30;;;7.10;99.90;;;;;;5099319;27;20205;-39
2022/04/27 00:48:41;;;;;;;6.87;3.63;;;7.10;99.90;;;;;;5087261;28;20205;-41
2022/04/27 00:51:11;;;;;;;5.73;3.97;;;7.10;99.90;;;;;;5091482;28;20217;-41
2022/04/27 00:53:40;;;;;;;9.43;4.43;;;7.10;99.90;;;;;;5080654;27;20257;-40
2022/04/27 00:56:07;;;;;;;6.57;4.10;;;7.00;99.90;;;;;;5106710;27;20197;-40
2022/04/27 00:58:35;;;;;;;11.37;4.57;;;7.00;99.90;;;;;;5095095;27;20292;-39
2022/04/27 01:01:02;;;;;;;6.30;3.80;;;7.00;99.90;;;;;;5094138;28;20197;-43
2022/04/27 01:03:30;;;;;;;7.60;3.67;;;7.00;99.90;;;;;;5082556;27;20290;-40
2022/04/27 01:05:58;;;;;;;8.10;4.00;;;7.00;99.90;;;;;;5093320;27;20201;-40
2022/04/27 01:08:25;;;;;;;4.57;3.80;;;6.90;99.90;;;;;;5092681;27;20217;-39
2022/04/27 01:10:53;;;;;;;6.83;3.67;;;6.90;99.90;;;;;;5098075;27;20278;-39
2022/04/27 01:13:20;;;;;;;5.40;3.80;;;6.90;99.90;;;;;;5087307;28;20666;-39
2022/04/27 01:15:53;;;;;;;5.07;4.00;;;6.90;99.90;;;;;;5091007;28;20201;-40
2022/04/27 01:18:20;;;;;;;4.13;3.47;;;6.80;99.90;;;;;;5082439;27;20224;-40
2022/04/27 01:20:50;;;;;;;8.10;4.00;;;6.80;99.90;;;;;;5084808;28;20228;-39
2022/04/27 01:23:19;;;;;;;7.03;3.97;;;6.80;99.90;;;;;;5084544;28;20735;-39
2022/04/27 01:25:49;;;;;;;6.80;4.07;;;6.70;99.90;;;;;;5090131;27;20455;-39
2022/04/27 01:28:18;;;;;;;4.87;4.37;;;6.70;99.90;;;;;;5098192;27;20251;-39
2022/04/27 01:30:44;;;;;;;8.00;3.83;;;6.70;99.90;;;;;;5081910;28;20189;-39
2022/04/27 01:33:12;;;;;;;7.87;3.67;;;6.60;99.90;;;;;;5087384;27;20769;-39
2022/04/27 01:35:40;;;;;;;3.87;3.57;;;6.60;99.90;;;;;;5086328;27;20329;-40
2022/04/27 01:38:08;;;;;;;5.20;3.93;;;6.60;99.90;;;;;;5087925;28;20197;-39
2022/04/27 01:40:36;;;;;;;5.93;3.83;;;6.60;99.90;;;;;;5081435;27;20282;-40
2022/04/27 01:43:03;;;;;;;8.03;4.37;;;6.60;99.90;;;;;;5095632;27;20233;-40
2022/04/27 01:45:30;;;;;;;9.93;4.33;;;6.60;99.90;;;;;;5081402;28;20194;-39
2022/04/27 01:47:58;;;;;;;6.57;3.60;;;6.60;99.90;;;;;;5090939;28;20259;-40
2022/04/27 01:50:24;;;;;;;6.57;4.00;;;6.60;99.90;;;;;;5074526;27;20210;-39
2022/04/27 01:55:38;;;;;;;8.50;3.90;;;6.50;99.90;;;;;;5079418;27;20346;-39
2022/04/27 01:58:05;;;;;;;5.97;4.23;;;6.50;99.90;;;;;;5096069;27;20227;-41
2022/04/27 02:00:33;;;;;;;7.10;4.37;;;6.60;99.90;;;;;;5086444;28;20224;-40
2022/04/27 02:03:00;;;;;;;6.37;4.17;;;6.60;99.90;;;;;;5091921;28;20792;-39
2022/04/27 02:05:27;;;;;;;7.70;4.13;;;6.60;99.90;;;;;;5078762;27;20202;-39
2022/04/27 02:07:54;;;;;;;6.80;4.20;;;6.50;99.90;;;;;;5093647;28;20225;-40
2022/04/27 02:10:21;;;;;;;6.03;3.80;;;6.50;99.90;;;;;;5075587;27;20285;-40
2022/04/27 02:12:51;;;;;;;8.10;4.10;;;6.50;99.90;;;;;;5104513;27;20224;-40
2022/04/27 02:15:23;;;;;;;6.70;4.23;;;6.50;99.90;;;;;;5086691;27;20197;-40
2022/04/27 02:18:03;;;;;;;6.90;4.47;;;6.50;99.90;;;;;;5091019;28;20237;-39
2022/04/27 02:20:31;;;;;;;5.77;4.00;;;6.40;99.90;;;;;;5090401;27;20761;-39
2022/04/27 02:22:58;;;;;;;7.90;4.23;;;6.40;99.90;;;;;;5092050;28;20222;-39
2022/04/27 02:25:25;;;;;;;5.97;4.07;;;6.40;99.90;;;;;;5077331;28;20204;-39
2022/04/27 02:27:53;;;;;;;4.60;4.03;;;6.40;99.90;;;;;;5090098;27;20205;-39
2022/04/27 02:30:20;;;;;;;7.57;4.37;;;6.30;99.90;;;;;;5094593;27;20205;-39
2022/04/27 02:32:47;;;;;;;4.40;3.73;;;6.30;99.90;;;;;;5088921;27;20210;-39
2022/04/27 02:35:15;;;;;;;5.90;4.13;;;6.30;99.90;;;;;;5089120;28;20197;-39
2022/04/27 02:37:42;;;;;;;4.57;4.17;;;6.30;99.90;;;;;;5084268;27;20203;-39
2022/04/27 02:40:10;;;;;;;5.53;3.60;;;6.30;99.90;;;;;;5095181;28;20210;-39
2022/04/27 02:42:37;;;;;;;4.80;3.80;;;6.20;99.90;;;;;;5082879;28;20246;-40
2022/04/27 02:45:07;;;;;;;8.30;4.20;;;6.30;99.90;;;;;;5097183;28;20199;-39
2022/04/27 02:47:34;;;;;;;3.80;3.47;;;6.30;99.90;;;;;;5088332;28;20209;-40
2022/04/27 02:52:56;;;;;;;5.90;3.90;;;6.20;99.90;;;;;;5086671;27;20222;-40
2022/04/27 02:55:27;;;;;;;4.03;3.63;;;6.30;99.90;;;;;;5082932;28;20318;-39
2022/04/27 02:57:54;;;;;;;6.17;4.10;;;6.20;99.90;;;;;;5088006;28;20392;-40
2022/04/27 03:00:25;;;;;;;8.50;4.17;;;6.20;99.90;;;;;;5086286;28;20294;-42
2022/04/27 03:02:53;;;;;;;8.87;4.33;;;6.20;99.90;;;;;;5096082;28;20700;-41
2022/04/27 03:05:23;;;;;;;6.87;3.97;;;6.10;99.90;;;;;;5089778;28;20209;-39
2022/04/27 03:07:50;;;;;;;8.40;4.07;;;6.10;99.90;;;;;;5093177;27;20209;-39
2022/04/27 03:10:17;;;;;;;5.47;3.90;;;6.10;99.90;;;;;;5087494;28;20193;-40
2022/04/27 03:12:45;;;;;;;6.73;3.60;;;6.10;99.90;;;;;;5091799;28;20654;-39
2022/04/27 03:15:12;;;;;;;5.23;3.87;;;6.10;99.90;;;;;;5099501;28;20249;-41
2022/04/27 03:17:40;;;;;;;6.67;3.80;;;6.10;99.90;;;;;;5086820;28;20289;-42
2022/04/27 03:20:09;;;;;;;6.27;3.60;;;6.10;99.90;;;;;;5088366;28;20301;-39
2022/04/27 03:22:36;;;;;;;6.20;3.90;;;6.00;99.90;;;;;;5092731;27;20232;-39
2022/04/27 03:25:04;;;;;;;8.60;3.40;;;6.00;99.90;;;;;;5095801;28;20232;-39
2022/04/27 03:27:31;;;;;;;11.50;5.00;;;6.00;99.90;;;;;;5100732;28;20197;-40
2022/04/27 03:29:58;;;;;;;7.23;4.03;;;6.00;99.90;;;;;;5093835;27;20200;-39
2022/04/27 03:32:24;;;;;;;5.20;4.13;;;6.00;99.90;;;;;;5098235;27;20629;-40
2022/04/27 03:34:56;;;;;;;7.27;4.00;;;6.00;99.90;;;;;;5098060;27;20201;-39
2022/04/27 03:37:27;;;;;;;7.00;4.83;;;6.00;99.90;;;;;;5096134;28;20559;-38
2022/04/27 03:39:54;;;;;;;8.27;4.20;;;6.00;99.90;;;;;;5088093;27;20220;-38
2022/04/27 03:42:22;;;;;;;6.13;3.73;;;6.00;99.90;;;;;;5082711;28;20221;-39
2022/04/27 03:44:55;;;;;;;6.70;4.07;;;6.00;99.90;;;;;;5085516;28;20298;-38
2022/04/27 03:47:25;;;;;;;7.37;4.80;;;5.90;99.90;;;;;;5096873;27;20214;-38
2022/04/27 03:49:55;;;;;;;6.77;4.43;;;5.90;99.90;;;;;;5096070;28;20190;-38
2022/04/27 03:52:23;;;;;;;7.73;5.03;;;5.90;99.90;;;;;;5091312;28;20261;-40
2022/04/27 03:54:51;;;;;;;7.37;4.23;;;5.90;99.90;;;;;;5091952;27;20554;-39
2022/04/27 03:57:18;;;;;;;6.53;4.50;;;5.80;99.90;;;;;;5093126;28;20661;-38
2022/04/27 03:59:45;;;;;;;8.10;4.67;;;5.80;99.90;;;;;;5094160;27;20221;-38
2022/04/27 04:02:13;;;;;;;4.83;4.27;;;5.80;99.90;;;;;;5087212;28;20218;-40
2022/04/27 04:04:40;;;;;;;6.23;4.27;;;5.80;99.90;;;;;;5092861;27;20202;-38
2022/04/27 04:07:07;;;;;;;7.30;5.00;;;5.80;99.90;;;;;;5084913;28;20714;-39
2022/04/27 04:09:44;;;;;;;10.47;5.00;;;5.80;99.90;;;;;;5084035;27;20245;-39
2022/04/27 04:12:11;;;;;;;6.13;4.87;;;5.90;99.90;;;;;;5090794;28;20579;-39
2022/04/27 04:15:02;;;;;;;5.67;4.50;;;5.80;99.90;;;;;;5100622;27;20200;-39
2022/04/27 04:17:45;;;;;;;6.83;5.30;;;5.80;99.90;;;;;;5093212;27;20203;-40
2022/04/27 04:20:26;;;;;;;7.80;4.90;;;5.90;99.90;;;;;;5092726;27;20264;-40
2022/04/27 04:23:07;;;;;;;6.00;4.67;;;5.90;99.90;;;;;;5090526;27;21307;-41
2022/04/27 04:28:33;;;;;;;9.27;5.27;;;5.90;99.90;;;;;;5089822;28;20194;-40
2022/04/27 04:31:01;;;;;;;7.60;4.50;;;6.00;99.90;;;;;;5085796;27;20241;-37
2022/04/27 04:33:33;;;;;;;10.20;4.93;;;6.00;99.90;;;;;;5104679;27;20235;-40
2022/04/27 04:36:01;;;;;;;8.30;5.40;;;6.00;99.90;;;;;;5086694;28;20214;-38
2022/04/27 04:38:28;;;;;;;9.10;5.33;;;6.00;99.90;;;;;;5092737;28;20207;-40
2022/04/27 04:41:00;;;;;;;8.93;5.07;;;6.10;99.90;;;;;;5098234;27;20371;-38
2022/04/27 04:43:37;;;;;;;7.63;4.30;;;6.10;99.90;;;;;;5091139;27;20225;-37
2022/04/27 04:46:04;;;;;;;7.77;4.30;;;6.10;99.90;;;;;;5082164;27;20205;-40
2022/04/27 04:48:47;;;;;;;9.80;5.07;;;6.10;99.90;;;;;;5088518;27;20214;-41
2022/04/27 04:51:32;;;;;;;8.23;4.73;;;6.10;99.90;;;;;;5090608;28;20235;-40
2022/04/27 04:54:25;;;;;;;12.33;4.57;;;6.10;99.90;;;;;;5088226;27;20209;-39
2022/04/27 04:57:00;;;;;;;10.23;5.13;;;6.10;99.90;;;;;;5094692;27;20212;-39
2022/04/27 04:59:46;;;;;;;8.43;5.20;;;6.10;99.90;;;;;;5090749;28;20224;-38
2022/04/27 05:02:22;;;;;;;9.50;5.03;;;6.20;99.90;;;;;;5086011;27;20219;-39
2022/04/27 05:04:58;;;;;;;8.63;4.93;;;6.20;99.90;;;;;;5091066;27;20188;-41
2022/04/27 05:07:42;;;;;;;5.90;4.37;;;6.20;99.90;;;;;;5094098;27;20201;-38
2022/04/27 05:10:37;;;;;;;15.90;5.53;;;6.20;99.90;;;;;;5093270;27;20673;-39
2022/04/27 05:13:15;;;;;;;8.87;4.87;;;6.30;99.90;;;;;;5090596;27;20228;-39
2022/04/27 05:16:15;;;;;;;8.73;4.60;;;6.30;99.90;;;;;;5091004;28;20204;-41
2022/04/27 05:18:57;;;;;;;12.60;4.93;;;6.40;99.90;;;;;;5084486;27;20289;-40
2022/04/27 05:21:43;;;;;;;7.50;4.43;;;6.40;99.90;;;;;;5086202;27;20246;-40
2022/04/27 05:24:29;;;;;;;6.63;4.40;;;6.50;99.90;;;;;;5101306;27;20678;-39
2022/04/27 05:27:24;;;;;;;7.40;4.40;;;6.50;99.90;;;;;;5092613;28;20568;-39
2022/04/27 05:33:05;;;;;;;8.80;5.67;;;6.70;99.90;;;;;;5061250;27;20238;-41
2022/04/27 05:35:50;;;;;;;9.50;4.77;;;6.80;99.90;;;;;;5093462;27;20848;-40
2022/04/27 05:38:35;;;;;;;9.00;4.60;;;6.80;99.90;;;;;;5088320;28;20236;-39
2022/04/27 05:41:23;;;;;;;8.17;5.40;;;6.90;99.90;;;;;;5092797;28;20351;-44
2022/04/27 05:44:09;;;;;;;9.03;4.77;;;7.00;99.90;;;;;;5087391;27;20237;-40
2022/04/27 05:47:06;;;;;;;8.23;5.07;;;7.10;99.90;;;;;;5085840;28;20209;-42
2022/04/27 05:49:58;;;;;;;9.57;4.90;;;7.10;99.90;;;;;;5086647;27;20200;-41
2022/04/27 05:52:50;;;;;;;8.37;4.70;;;7.20;99.90;;;;;;5076506;27;20225;-40
2022/04/27 05:55:43;;;;;;;8.87;4.47;;;7.20;99.90;;;;;;5076297;28;20205;-40
2022/04/27 05:58:31;;;;;;;8.23;4.73;;;7.30;99.90;;;;;;5075427;28;20209;-41
2022/04/27 06:01:11;;;;;;;12.73;4.93;;;7.30;99.90;;;;;;5082283;27;20690;-40
2022/04/27 06:03:51;;;;;;;11.53;5.23;;;7.40;99.90;;;;;;5100325;27;20301;-40
2022/04/27 06:06:18;;;;;;;8.10;5.53;;;7.50;99.90;;;;;;5095329;27;20201;-41
2022/04/27 06:08:45;;;;;;;8.53;4.50;;;7.60;99.90;;;;;;5087444;28;20541;-41
2022/04/27 06:11:19;;;;;;;10.33;4.70;;;7.70;99.90;;;;;;5091251;28;20201;-41
2022/04/27 06:14:09;;;;;;;9.20;5.03;;;7.70;99.90;;;;;;5095016;28;20305;-42
2022/04/27 06:16:45;;;;;;;7.73;4.20;;;7.80;99.90;;;;;;5091356;27;20207;-40
2022/04/27 06:19:18;;;;;;;9.43;4.10;;;7.90;99.90;;;;;;5086929;28;20204;-40
2022/04/27 06:21:49;;;;;;;5.63;3.87;;;8.00;99.90;;;;;;5085768;27;20573;-43
2022/04/27 06:24:18;;;;;;;6.27;3.83;;;8.10;99.90;;;;;;5090583;27;20199;-43
2022/04/27 06:26:45;;;;;;;9.40;4.03;;;8.10;99.90;;;;;;5093557;27;20202;-40
2022/04/27 06:29:11;;;;;;;7.20;4.63;;;8.20;99.90;;;;;;5092460;28;20312;-41
2022/04/27 06:31:40;;;;;;;6.97;3.83;;;8.30;99.90;;;;;;5094423;27;20225;-40
2022/04/27 06:34:07;;;;;;;8.43;3.93;;;8.40;99.90;;;;;;5091371;27;20212;-41
2022/04/27 06:36:36;;;;;;;6.37;3.70;;;8.50;99.90;;;;;;5087548;27;20197;-42
2022/04/27 06:39:04;;;;;;;7.30;4.03;;;8.50;99.90;;;;;;5093444;27;20194;-42
2022/04/27 06:41:32;;;;;;;9.10;3.97;;;8.70;99.90;;;;;;5081810;28;20224;-39
2022/04/27 06:44:17;;;;;;;6.07;3.63;;;8.80;99.90;;;;;;5088177;27;20461;-40
2022/04/27 06:47:03;;;;;;;6.67;4.00;;;8.80;99.90;;;;;;5090784;27;20573;-41
2022/04/27 06:49:48;;;;;;;5.73;3.30;;;8.80;99.90;;;;;;5088738;27;20601;-41
2022/04/27 06:52:42;;;;;;;8.33;3.90;;;8.90;99.90;;;;;;5092985;27;20231;-42
2022/04/27 06:55:28;;;;;;;7.93;3.43;;;8.90;99.90;;;;;;5089320;28;20220;-39
2022/04/27 06:58:13;;;;;;;7.03;3.13;;;9.00;99.90;;;;;;5097851;27;20219;-40
2022/04/27 07:00:40;;;;;;;5.47;2.90;;;9.10;99.90;;;;;;5085809;28;20798;-42
2022/04/27 07:03:09;;;;;;;7.67;3.20;;;9.20;99.90;;;;;;5089251;28;20993;-40
2022/04/27 07:05:37;;;;;;;6.47;2.83;;;9.20;99.90;;;;;;5094535;28;20193;-41
2022/04/27 07:08:06;;;;;;;4.53;2.63;;;9.30;99.90;;;;;;5080853;28;20202;-41
2022/04/27 07:10:36;;;;;;;5.57;2.93;;;9.30;99.90;;;;;;5101726;28;20208;-41
2022/04/27 07:13:04;;;;;;;6.50;3.30;;;9.30;99.90;;;;;;5089604;28;20299;-40
2022/04/27 07:15:30;;;;;;;9.03;2.97;;;9.40;99.90;;;;;;5097138;28;20201;-40
2022/04/27 07:17:57;;;;;;;7.83;4.07;;;9.40;99.90;;;;;;5083066;28;20213;-39
2022/04/27 07:20:24;;;;;;;5.07;3.33;;;9.40;99.90;;;;;;5090419;28;20221;-41
2022/04/27 07:22:51;;;;;;;8.37;2.90;;;9.40;99.90;;;;;;5095637;28;20219;-41
2022/04/27 07:25:19;;;;;;;4.47;2.73;;;9.40;99.90;;;;;;5095495;28;20690;-39
2022/04/27 07:27:46;;;;;;;4.67;3.23;;;9.40;99.90;;;;;;5097842;28;20230;-40
2022/04/27 07:30:13;;;;;;;8.43;3.27;;;9.40;99.90;;;;;;5089104;28;20289;-43
2022/04/27 07:32:39;;;;;;;3.40;2.80;;;9.50;99.90;;;;;;5091809;28;20665;-43
2022/04/27 07:35:07;;;;;;;9.63;3.40;;;9.50;99.90;;;;;;5087321;28;20259;-40
2022/04/27 07:37:37;;;;;;;4.37;2.93;;;9.50;99.90;;;;;;5085614;28;20206;-40
2022/04/27 07:40:04;;;;;;;9.93;3.20;;;9.50;99.90;;;;;;5093013;28;20203;-41
2022/04/27 07:42:32;;;;;;;6.67;3.33;;;9.60;99.90;;;;;;5101913;28;20222;-41
2022/04/27 07:45:00;;;;;;;4.47;3.23;;;9.70;99.90;;;;;;5084841;28;20206;-40
2022/04/27 07:47:26;;;;;;;3.07;2.80;;;9.70;99.90;;;;;;5089633;28;20185;-40
2022/04/27 07:49:53;;;;;;;6.50;3.40;;;9.80;99.90;;;;;;5086401;28;20198;-39
2022/04/27 07:52:19;;;;;;;6.43;3.63;;;9.80;99.90;;;;;;5086917;28;20218;-40
2022/04/27 07:54:46;;;;;;;5.13;3.13;;;9.80;99.90;;;;;;5087618;28;20197;-39
2022/04/27 07:57:13;;;;;;;7.90;3.30;;;10.00;99.90;;;;;;5098024;28;20189;-40
2022/04/27 07:59:41;;;;;;;8.17;4.00;;;10.20;99.90;;;;;;5088046;28;20200;-40
2022/04/27 08:02:07;;;;;;;6.07;3.20;;;10.20;99.90;;;;;;5088612;28;20217;-39
2022/04/27 08:04:34;;;;;;;6.00;3.33;;;10.20;99.90;;;;;;5093528;28;20647;-40
2022/04/27 08:07:01;;;;;;;6.03;3.03;;;10.20;99.90;;;;;;5090784;27;20693;-40
2022/04/27 08:09:27;;;;;;;4.07;3.40;;;10.30;99.90;;;;;;5083331;27;20216;-44
2022/04/27 08:11:54;;;;;;;6.13;3.10;;;10.50;99.90;;;;;;5091962;27;20669;-39
2022/04/27 08:14:20;;;;;;;4.80;3.03;;;10.60;99.90;;;;;;5089063;28;20971;-43
2022/04/27 08:16:48;;;;;;;4.83;2.70;;;10.70;99.90;;;;;;5099357;28;20197;-41
2022/04/27 08:19:15;;;;;;;6.53;3.03;;;10.80;99.90;;;;;;5096985;27;20202;-40
2022/04/27 08:21:43;;;;;;;4.33;3.10;;;10.80;99.90;;;;;;5087512;27;20221;-40
2022/04/27 08:24:11;;;;;;;4.00;2.50;;;10.80;99.90;;;;;;5095643;27;20288;-42
2022/04/27 08:26:38;;;;;;;5.73;3.00;;;10.80;99.90;;;;;;5093104;27;20606;-40
2022/04/27 08:29:05;;;;;;;5.27;2.57;;;10.70;99.90;;;;;;5092582;28;20228;-40
2022/04/27 08:31:32;;;;;;;8.97;2.50;;;10.70;99.90;;;;;;5103309;27;20198;-40
2022/04/27 08:34:00;;;;;;;4.63;2.37;;;10.80;99.90;;;;;;5098519;27;20217;-42
2022/04/27 08:36:26;;;;;;;4.00;2.40;;;10.90;99.90;;;;;;5094681;27;20251;-40
2022/04/27 08:38:53;;;;;;;4.57;2.40;;;11.00;99.90;;;;;;5090672;28;20546;-40
2022/04/27 08:41:20;;;;;;;3.10;1.90;;;11.10;99.90;;;;;;5089379;27;20310;-39
2022/04/27 08:43:47;;;;;;;4.50;2.13;;;11.30;99.90;;;;;;5094578;27;20223;-39
2022/04/27 08:46:15;;;;;;;3.87;2.30;;;11.50;99.90;;;;;;5104380;27;20243;-40
2022/04/27 08:48:47;;;;;;;5.40;2.47;;;11.60;99.90;;;;;;5091544;28;20202;-39
2022/04/27 08:51:15;;;;;;;10.73;2.80;;;11.60;99.90;;;;;;5083356;27;20267;-40
2022/04/27 08:53:43;;;;;;;4.00;2.33;;;11.60;99.90;;;;;;5096485;27;20225;-40
2022/04/27 08:56:13;;;;;;;5.90;2.37;;;11.60;99.90;;;;;;5083141;27;20228;-43
2022/04/27 08:58:40;;;;;;;4.33;2.90;;;11.60;99.90;;;;;;5105245;27;20201;-40
2022/04/27 09:01:07;;;;;;;5.73;2.83;;;11.70;99.90;;;;;;5096157;27;20717;-41
2022/04/27 09:03:37;;;;;;;4.60;3.30;;;11.80;99.90;;;;;;5106239;27;20257;-40
2022/04/27 09:06:05;;;;;;;8.43;3.13;;;11.60;99.90;;;;;;5089131;27;20221;-41
2022/04/27 09:08:41;;;;;;;4.20;2.67;;;11.60;99.90;;;;;;5095183;27;20217;-41
2022/04/27 09:11:13;;;;;;;3.37;3.00;;;11.80;99.90;;;;;;5094743;27;20184;-42
2022/04/27 09:13:40;;;;;;;3.87;3.10;;;12.00;99.90;;;;;;5098888;27;20230;-43
2022/04/27 09:16:07;;;;;;;4.53;2.90;;;12.10;99.90;;;;;;5093240;27;20280;-41
2022/04/27 09:21:32;;;;;;;6.63;3.17;;;12.10;99.90;;;;;;5080512;27;20225;-41
2022/04/27 09:24:04;;;;;;;5.40;3.03;;;12.20;99.90;;;;;;5083397;27;20298;-40
2022/04/27 09:26:31;;;;;;;6.27;3.40;;;12.20;99.90;;;;;;5098417;27;20229;-41
2022/04/27 09:28:59;;;;;;;4.47;3.90;;;12.20;99.90;;;;;;5087065;27;20197;-40
2022/04/27 09:31:27;;;;;;;4.10;2.57;;;12.40;99.90;;;;;;5094738;27;20372;-40
2022/04/27 09:33:58;;;;;;;5.67;3.20;;;12.50;99.90;;;;;;5095275;27;20704;-39
2022/04/27 09:36:26;;;;;;;6.23;2.70;;;12.50;99.90;;;;;;5099289;27;20273;-40
2022/04/27 09:38:53;;;;;;;4.97;2.77;;;12.40;99.90;;;;;;5083201;28;20208;-41
2022/04/27 09:41:41;;;;;;;4.07;2.40;;;12.40;99.90;;;;;;5092601;28;20224;-40
2022/04/27 09:44:08;;;;;;;4.43;2.90;;;12.50;99.90;;;;;;5093316;27;20223;-39
2022/04/27 09:46:41;;;;;;;6.33;2.73;;;12.50;99.90;;;;;;5099525;27;20210;-39
2022/04/27 09:49:14;;;;;;;6.43;3.17;;;12.40;99.90;;;;;;5081782;28;20197;-39
2022/04/27 09:51:48;;;;;;;3.93;2.77;;;12.40;99.90;;;;;;5087451;28;20205;-41
2022/04/27 09:54:19;;;;;;;4.77;3.10;;;12.50;99.90;;;;;;5088503;27;20197;-39
2022/04/27 09:56:54;;;;;;;4.17;2.77;;;12.40;99.90;;;;;;5083276;27;20291;-38
2022/04/27 09:59:22;;;;;;;4.97;3.63;;;12.50;99.90;;;;;;5079619;27;20197;-40
2022/04/27 10:01:50;;;;;;;5.20;3.80;;;12.60;99.90;;;;;;5099985;27;20219;-40
2022/04/27 10:04:21;;;;;;;7.60;3.67;;;12.60;99.70;;;;;;5096633;27;20193;-41
2022/04/27 10:06:48;;;;;;;4.43;3.57;;;12.70;99.70;;;;;;5108311;27;20618;-39
2022/04/27 10:09:15;;;;;;;4.03;3.50;;;12.90;99.90;;;;;;5087727;27;20198;-39
2022/04/27 10:11:43;;;;;;;5.83;3.70;;;13.20;99.90;;;;;;5096391;27;20203;-42
2022/04/27 10:14:11;;;;;;;9.73;4.03;;;13.40;99.90;;;;;;5078730;28;20279;-42
2022/04/27 10:16:39;;;;;;;4.83;3.40;;;13.50;99.50;;;;;;5093825;27;20205;-42
2022/04/27 10:19:10;;;;;;;6.90;3.63;;;13.40;99.10;;;;;;5096023;27;20197;-40
2022/04/27 10:21:39;;;;;;;6.00;3.37;;;13.30;99.50;;;;;;5093626;28;20241;-42
2022/04/27 10:24:06;;;;;;;3.63;3.33;;;13.40;99.30;;;;;;5085659;27;20247;-41
2022/04/27 10:26:33;;;;;;;4.60;3.63;;;13.50;98.60;;;;;;5095327;28;20291;-42
2022/04/27 10:29:04;;;;;;;7.03;3.70;;;13.50;98.40;;;;;;5085074;28;20685;-40
2022/04/27 10:32:02;;;;;;;5.43;2.97;;;13.50;98.00;;;;;;5093849;27;20193;-43
2022/04/27 10:34:30;;;;;;;6.40;2.90;;;13.30;97.70;;;;;;5086894;27;20198;-40
2022/04/27 10:36:58;;;;;;;4.70;3.53;;;13.20;98.00;;;;;;5100041;27;20200;-41
2022/04/27 10:39:27;;;;;;;3.10;2.73;;;13.20;97.70;;;;;;5094107;27;20974;-46
2022/04/27 10:41:56;;;;;;;3.70;2.93;;;13.20;97.90;;;;;;5097072;27;20196;-46
2022/04/27 10:44:50;;;;;;;3.67;2.70;;;13.30;97.50;;;;;;5096652;27;20186;-49
2022/04/27 10:47:20;;;;;;;3.97;2.70;;;13.20;97.00;;;;;;5090974;27;20204;-49
2022/04/27 10:49:47;;;;;;;4.60;2.83;;;13.20;96.90;;;;;;5091122;28;20560;-44
2022/04/27 10:52:15;;;;;;;3.50;2.67;;;13.20;96.80;;;;;;5082921;28;20267;-50
2022/04/27 10:54:43;;;;;;;5.53;2.60;;;13.10;96.40;;;;;;5081115;27;20197;-48
2022/04/27 10:57:41;;;;;;;3.27;2.80;;;13.10;96.00;;;;;;5087856;28;20190;-47
2022/04/27 11:00:11;;;;;;;4.73;2.93;;;13.30;95.20;;;;;;5086893;28;20559;-46
2022/04/27 11:02:41;;;;;;;3.20;3.00;;;13.40;95.10;;;;;;5087738;28;20217;-45
2022/04/27 11:05:21;;;;;;;3.13;2.93;;;13.50;95.00;;;;;;5091899;28;20196;-50
2022/04/27 11:07:55;;;;;;;5.03;2.97;;;13.40;94.70;;;;;;5086070;28;20742;-45
2022/04/27 11:10:22;;;;;;;2.97;2.73;;;13.40;94.70;;;;;;5090182;28;21276;-48
2022/04/27 11:12:51;;;;;;;3.83;3.23;;;13.40;94.80;;;;;;5090769;28;20210;-47
2022/04/27 11:15:22;;;;;;;4.83;3.63;;;13.50;94.40;;;;;;5081612;28;20186;-49
2022/04/27 11:17:56;;;;;;;3.80;3.00;;;13.50;94.30;;;;;;5089870;28;20200;-47
2022/04/27 11:20:28;;;;;;;5.33;3.70;;;13.30;94.50;;;;;;5098663;28;20211;-47
2022/04/27 11:22:56;;;;;;;3.60;3.30;;;13.10;94.40;;;;;;5088400;28;20228;-47
2022/04/27 11:25:24;;;;;;;5.23;3.53;;;13.00;94.70;;;;;;5091362;28;20229;-47
2022/04/27 11:27:51;;;;;;;6.33;3.43;;;12.90;94.60;;;;;;5091915;28;20193;-47
2022/04/27 11:30:19;;;;;;;4.60;3.50;;;13.00;94.70;;;;;;5086009;28;20246;-47
2022/04/27 11:32:47;;;;;;;5.63;3.13;;;13.00;94.20;;;;;;5093069;28;20715;-45
2022/04/27 11:35:15;;;;;;;3.73;3.43;;;13.10;93.00;;;;;;5078401;28;20299;-47
2022/04/27 11:37:42;;;;;;;6.33;3.57;;;13.10;93.60;;;;;;5095056;28;20583;-46
2022/04/27 11:40:13;;;;;;;4.53;3.00;;;13.40;93.80;;;;;;5078434;28;20198;-45
2022/04/27 11:42:42;;;;;;;5.57;3.00;;;13.60;93.20;;;;;;5091660;27;20686;-44
2022/04/27 11:45:11;;;;;;;4.03;2.93;;;13.60;92.60;;;;;;5093154;28;20202;-47
2022/04/27 11:47:38;;;;;;;3.73;2.80;;;13.70;92.90;;;;;;5097060;27;20197;-44
2022/04/27 11:50:06;;;;;;;4.73;3.10;;;13.90;92.00;;;;;;5088290;27;20196;-46
2022/04/27 11:52:37;;;;;;;4.53;2.90;;;14.00;92.00;;;;;;5096086;27;20275;-44
2022/04/27 11:55:23;;;;;;;5.17;3.33;;;14.00;91.70;;;;;;5090820;28;20353;-44
2022/04/27 11:57:52;;;;;;;4.10;3.43;;;;;;;;;;5085700;27;20209;-45
2022/04/27 12:00:21;;;;;;;4.13;2.87;;;14.20;99.90;;;;;;5090731;28;20185;-49
2022/04/27 12:02:48;;;;;;;3.07;2.87;;;14.20;99.90;;;;;;5102887;27;20217;-46
2022/04/27 12:05:15;;;;;;;4.40;2.83;;;14.20;99.00;;;;;;5098750;27;20358;-43
2022/04/27 12:07:50;;;;;;;4.90;3.10;;;;;;;;;;5091556;27;20206;-47
2022/04/27 12:10:17;;;;;;;5.27;3.60;;;14.30;94.00;;;;;;5093844;27;20863;-45
2022/04/27 12:12:44;;;;;;;3.20;3.00;;;14.40;92.70;;;;;;5090966;27;20635;-46
2022/04/27 12:15:12;;;;;;;4.87;3.63;;;14.00;91.40;;;;;;5094000;27;20189;-48
2022/04/27 12:17:47;;;;;;;3.50;3.30;;;13.70;89.50;;;;;;5090269;27;20290;-45
2022/04/27 12:20:36;;;;;;;4.53;3.70;;;13.70;90.70;;;;;;5088253;28;20506;-47
2022/04/27 12:23:06;;;;;;;3.97;3.17;;;13.80;90.00;;;;;;5101751;27;20224;-48
2022/04/27 12:25:42;;;;;;;8.43;3.63;;;13.70;90.70;;;;;;5081747;28;20202;-45
2022/04/27 12:28:12;;;;;;;5.77;3.23;;;13.70;90.00;;;;;;5091478;27;20201;-44
2022/04/27 12:30:49;;;;;;;4.77;3.30;;;13.60;90.30;;;;;;5092862;27;20801;-46
2022/04/27 12:33:17;;;;;;;4.50;3.53;;;13.80;89.50;;;;;;5095371;27;20210;-45
2022/04/27 12:38:32;;;;;;;6.43;3.10;;;14.10;88.30;;;;;;5077738;27;20200;-46
2022/04/27 12:40:59;;;;;;;6.50;2.90;;;13.80;88.00;;;;;;5102110;27;20253;-45
2022/04/27 12:43:28;;;;;;;4.03;3.37;;;13.70;88.00;;;;;;5076899;27;20217;-47
2022/04/27 12:46:05;;;;;;;4.10;3.70;;;13.60;88.60;;;;;;5094966;27;20210;-45
2022/04/27 12:48:35;;;;;;;3.80;3.00;;;13.60;87.20;;;;;;5088381;28;20208;-44
2022/04/27 12:51:04;;;;;;;4.03;3.63;;;13.60;89.00;;;;;;5087518;27;20566;-45
2022/04/27 12:53:32;;;;;;;3.53;3.23;;;13.70;87.50;;;;;;5081817;27;20210;-45
2022/04/27 12:56:07;;;;;;;3.57;3.27;;;13.70;87.20;;;;;;5093519;28;20194;-44
2022/04/27 12:58:34;;;;;;;4.33;3.43;;;13.90;86.90;;;;;;5092443;27;20209;-44
2022/04/27 13:01:01;;;;;;;3.73;3.30;;;14.10;87.30;;;;;;5090413;27;20694;-47
2022/04/27 13:03:28;;;;;;;4.70;3.60;;;14.60;83.10;;;;;;5094684;27;20221;-46
2022/04/27 13:05:55;;;;;;;3.17;2.80;;;14.70;85.40;;;;;;5089313;27;20212;-47
2022/04/27 13:08:21;;;;;;;3.30;3.00;;;14.70;84.60;;;;;;5101139;27;20280;-45
2022/04/27 13:13:36;;;;;;;3.20;2.87;;;;;;;;;;5088739;27;20218;-45
2022/04/27 13:16:03;;;;;;;5.63;3.17;;;15.00;82.20;;;;;;5103183;27;20193;-44
2022/04/27 13:18:30;;;;;;;3.47;3.07;;;15.20;82.30;;;;;;5080108;27;20200;-47
2022/04/27 13:20:57;;;;;;;3.90;2.30;;;15.40;81.60;;;;;;5082954;27;20209;-45
2022/04/27 13:23:23;;;;;;;3.10;2.80;;;15.60;80.00;;;;;;5090658;27;20225;-45
2022/04/27 13:25:52;;;;;;;6.43;3.30;;;15.60;80.70;;;;;;5089384;27;20194;-45
2022/04/27 13:28:18;;;;;;;3.13;2.80;;;16.00;79.10;;;;;;5089057;27;20206;-45
2022/04/27 13:30:45;;;;;;;2.77;2.57;;;16.20;77.40;;;;;;5097267;28;20202;-44
2022/04/27 13:33:12;;;;;;;4.67;2.97;;;16.00;77.30;;;;;;5097750;27;20201;-45